Richmond Heights, Ohio
Current Conditions -  °F | °C
As of 9:45 PM on Thursday 27 Nov 2014 (Local Time) from KCGF Reporting Station
Snow Showers Snow Showers  
Wind Chill: -6°   Ceiling: 700
Heat Index:   Visibility: 6mi
Dew Point: -3°   Wind: 14mph
Humidity: 80%   Direction: 360°N
Pressure: 30.21"   Gusts: NA
Location:  41.5545°N, 81.4746°W
Report Text: KCGF 280245Z 36012KT 6SM -SHSN BKN007 BOVC015 00/M03 A3021
Loading
Personal Weather Stations






























Interactive Weather Map New forecast layout! Learn more

10-Day Weather Forecast

Advertisements
Track Severe Weather on mobile